createdAt,value
2023-05-19T00:00:48.560Z,10.94
2023-05-19T00:06:54.534Z,10.93
2023-05-19T00:09:21.290Z,10.78
2023-05-19T00:11:48.002Z,10.87
2023-05-19T00:14:14.496Z,10.75
2023-05-19T00:16:42.204Z,10.79
2023-05-19T00:19:10.169Z,10.82
2023-05-19T00:21:40.281Z,10.74
2023-05-19T00:24:07.536Z,10.64
2023-05-19T00:26:34.071Z,10.63
2023-05-19T00:29:00.830Z,10.59
2023-05-19T00:31:27.342Z,10.59
2023-05-19T00:33:53.857Z,10.55
2023-05-19T00:36:20.345Z,10.48
2023-05-19T00:38:46.727Z,10.44
2023-05-19T00:41:13.206Z,10.43
2023-05-19T00:43:39.781Z,10.40
2023-05-19T00:46:07.245Z,10.42
2023-05-19T00:48:33.755Z,10.35
2023-05-19T00:51:04.634Z,10.35
2023-05-19T00:53:33.345Z,10.32
2023-05-19T00:56:00.420Z,10.37
2023-05-19T00:58:30.536Z,10.37
2023-05-19T01:01:03.170Z,10.27
2023-05-19T01:03:35.498Z,10.29
2023-05-19T01:06:07.078Z,10.26
2023-05-19T01:08:35.586Z,10.18
2023-05-19T01:11:02.205Z,10.25
2023-05-19T01:13:29.265Z,10.23
2023-05-19T01:16:34.866Z,10.15
2023-05-19T01:19:25.371Z,10.19
2023-05-19T01:22:13.056Z,10.19
2023-05-19T01:24:45.378Z,10.23
2023-05-19T01:27:30.103Z,10.20
2023-05-19T01:30:11.832Z,10.15
2023-05-19T01:32:42.317Z,10.03
2023-05-19T01:35:12.425Z,10.05
2023-05-19T01:37:40.641Z,10.10
2023-05-19T01:40:09.961Z,10.04
2023-05-19T01:42:39.766Z,9.98
2023-05-19T01:45:10.365Z,9.87
2023-05-19T01:47:38.586Z,9.86
2023-05-19T01:50:06.106Z,9.91
2023-05-19T01:52:32.985Z,9.82
2023-05-19T01:54:59.701Z,9.90
2023-05-19T01:58:00.540Z,9.91
2023-05-19T02:00:54.569Z,9.83
2023-05-19T02:03:48.029Z,9.79
2023-05-19T02:06:37.016Z,9.74
2023-05-19T02:09:13.342Z,9.73
2023-05-19T02:12:01.045Z,9.73
2023-05-19T02:14:35.323Z,9.68
2023-05-19T02:17:04.376Z,9.67
2023-05-19T02:19:38.967Z,9.71
2023-05-19T02:22:05.825Z,9.69
2023-05-19T02:24:32.604Z,9.70
2023-05-19T02:26:59.487Z,9.58
2023-05-19T02:29:26.061Z,9.68
2023-05-19T02:31:52.522Z,9.63
2023-05-19T02:34:18.999Z,9.58
2023-05-19T02:36:45.412Z,9.56
2023-05-19T02:39:12.362Z,9.43
2023-05-19T02:41:39.054Z,9.46
2023-05-19T02:44:05.584Z,9.46
2023-05-19T02:46:31.997Z,9.49
2023-05-19T02:48:58.529Z,9.52
2023-05-19T02:51:24.930Z,9.46
2023-05-19T02:53:51.260Z,9.45
2023-05-19T02:56:17.658Z,9.40
2023-05-19T02:58:44.519Z,9.39
2023-05-19T03:01:11.086Z,9.34
2023-05-19T03:03:37.494Z,9.37
2023-05-19T03:06:04.873Z,9.32
2023-05-19T03:08:31.266Z,9.29
2023-05-19T03:10:57.631Z,9.27
2023-05-19T03:13:24.137Z,9.28
2023-05-19T03:15:51.075Z,9.29
2023-05-19T03:18:17.582Z,9.29
2023-05-19T03:20:45.442Z,9.31
2023-05-19T03:23:11.940Z,9.28
2023-05-19T03:25:38.538Z,9.20
2023-05-19T03:28:05.434Z,9.19
2023-05-19T03:30:32.027Z,9.13
2023-05-19T03:32:58.663Z,9.15
2023-05-19T03:35:25.013Z,9.17
2023-05-19T03:37:51.440Z,9.12
2023-05-19T03:40:18.787Z,9.14
2023-05-19T03:42:45.206Z,9.08
2023-05-19T03:45:11.762Z,9.10
2023-05-19T03:47:38.152Z,9.06
2023-05-19T03:50:04.930Z,9.05
2023-05-19T03:52:31.316Z,9.08
2023-05-19T03:54:57.840Z,9.06
2023-05-19T03:57:24.346Z,9.04
2023-05-19T03:59:50.790Z,9.04
2023-05-19T04:02:17.306Z,9.03
2023-05-19T04:04:43.725Z,8.98
2023-05-19T04:07:10.082Z,8.97
2023-05-19T04:09:37.539Z,8.94
2023-05-19T04:12:04.126Z,8.92
2023-05-19T04:14:30.547Z,8.92
2023-05-19T04:16:57.133Z,8.88
2023-05-19T04:19:23.596Z,8.87
2023-05-19T04:21:49.982Z,9.00
2023-05-19T04:24:16.375Z,8.93
2023-05-19T04:26:45.967Z,8.94
2023-05-19T04:29:13.757Z,8.93
2023-05-19T04:31:41.009Z,8.93
2023-05-19T04:34:10.485Z,8.95
2023-05-19T04:36:37.714Z,8.94
2023-05-19T04:39:07.637Z,8.96
2023-05-19T04:41:34.751Z,8.98
2023-05-19T04:44:01.105Z,9.00
2023-05-19T04:46:29.942Z,9.02
2023-05-19T04:48:57.107Z,9.03
2023-05-19T04:51:29.219Z,9.02
2023-05-19T04:53:59.873Z,9.09
2023-05-19T04:56:27.370Z,9.09
2023-05-19T04:58:53.857Z,9.13
2023-05-19T05:01:22.684Z,9.23
2023-05-19T05:03:49.322Z,9.23
2023-05-19T05:06:16.214Z,9.35
2023-05-19T05:08:42.672Z,9.36
2023-05-19T05:11:09.437Z,9.48
2023-05-19T05:13:36.154Z,9.51
2023-05-19T05:16:06.312Z,9.60
2023-05-19T05:18:34.179Z,9.71
2023-05-19T05:21:01.149Z,9.82
2023-05-19T05:23:27.879Z,9.89
2023-05-19T05:25:54.679Z,9.93
2023-05-19T05:28:21.068Z,10.05
2023-05-19T05:30:47.469Z,10.14
2023-05-19T05:33:14.010Z,10.22
2023-05-19T05:35:40.759Z,10.33
2023-05-19T05:38:08.144Z,10.43
2023-05-19T05:40:34.517Z,10.53
2023-05-19T05:43:00.946Z,10.60
2023-05-19T05:45:27.374Z,10.66
2023-05-19T05:47:54.157Z,10.80
2023-05-19T05:50:20.832Z,10.90
2023-05-19T05:52:48.267Z,11.04
2023-05-19T05:55:17.615Z,11.06
2023-05-19T05:57:44.203Z,11.15
2023-05-19T06:00:15.434Z,11.27
2023-05-19T06:02:46.349Z,11.34
2023-05-19T06:05:14.027Z,11.51
2023-05-19T06:07:41.195Z,11.63
2023-05-19T06:10:09.025Z,11.75
2023-05-19T06:12:35.812Z,11.91
2023-05-19T06:15:02.987Z,11.94
2023-05-19T06:17:29.432Z,11.99
2023-05-19T06:19:55.823Z,12.01
2023-05-19T06:22:22.255Z,12.13
2023-05-19T06:24:48.637Z,12.23
2023-05-19T06:27:15.213Z,12.21
2023-05-19T06:29:41.577Z,12.25
2023-05-19T06:32:07.911Z,12.32
2023-05-19T06:34:34.287Z,12.34
2023-05-19T06:37:02.301Z,12.46
2023-05-19T06:39:28.722Z,12.57
2023-05-19T06:41:55.112Z,12.74
2023-05-19T06:44:22.653Z,12.78
2023-05-19T06:46:49.176Z,12.85
2023-05-19T06:49:15.628Z,12.89
2023-05-19T06:51:42.006Z,12.93
2023-05-19T06:54:10.962Z,13.04
2023-05-19T06:56:37.391Z,13.13
2023-05-19T06:59:04.137Z,13.14
2023-05-19T07:01:30.926Z,13.29
2023-05-19T07:03:57.689Z,13.29
2023-05-19T07:06:24.125Z,13.48
2023-05-19T07:08:50.778Z,13.51
2023-05-19T07:11:17.698Z,13.51
2023-05-19T07:13:44.100Z,13.53
2023-05-19T07:16:10.625Z,13.55
2023-05-19T07:18:37.146Z,13.70
2023-05-19T07:21:03.704Z,13.66
2023-05-19T07:23:30.090Z,13.49
2023-05-19T07:25:56.960Z,13.55
2023-05-19T07:28:23.525Z,13.64
2023-05-19T07:30:49.992Z,13.62
2023-05-19T07:33:16.472Z,13.90
2023-05-19T07:35:42.965Z,14.06
2023-05-19T07:38:09.425Z,14.08
2023-05-19T07:40:35.782Z,14.25
2023-05-19T07:43:02.102Z,14.34
2023-05-19T07:45:28.613Z,14.31
2023-05-19T07:47:55.083Z,14.43
2023-05-19T07:50:21.558Z,14.51
2023-05-19T07:52:47.938Z,14.39
2023-05-19T07:55:14.909Z,14.56
2023-05-19T07:57:41.453Z,14.81
2023-05-19T08:00:10.008Z,14.86
2023-05-19T08:02:36.459Z,15.21
2023-05-19T08:05:03.028Z,15.29
2023-05-19T08:07:29.436Z,15.41
2023-05-19T08:09:55.840Z,15.51
2023-05-19T08:12:22.344Z,15.57
2023-05-19T08:14:48.712Z,15.70
2023-05-19T08:17:15.138Z,15.79
2023-05-19T08:19:41.515Z,15.78
2023-05-19T08:22:07.859Z,15.96
2023-05-19T08:24:34.430Z,16.22
2023-05-19T08:27:00.840Z,16.26
2023-05-19T08:29:27.190Z,16.41
2023-05-19T08:31:53.759Z,16.57
2023-05-19T08:34:20.672Z,16.63
2023-05-19T08:36:47.614Z,16.57
2023-05-19T08:39:16.125Z,16.71
2023-05-19T08:41:42.553Z,16.81
2023-05-19T08:44:09.181Z,16.76
2023-05-19T08:46:35.847Z,16.73
2023-05-19T08:49:07.517Z,16.79
2023-05-19T08:51:43.063Z,17.35
2023-05-19T08:54:15.815Z,17.57
2023-05-19T08:56:46.447Z,17.36
2023-05-19T08:59:17.228Z,17.25
2023-05-19T09:01:48.486Z,17.19
2023-05-19T09:04:16.750Z,17.20
2023-05-19T09:06:45.378Z,17.57
2023-05-19T09:09:12.146Z,17.80
2023-05-19T09:11:38.508Z,17.79
2023-05-19T09:14:05.633Z,17.83
2023-05-19T09:16:34.014Z,17.95
2023-05-19T09:19:01.113Z,18.35
2023-05-19T09:21:30.994Z,18.48
2023-05-19T09:24:08.346Z,18.85
2023-05-19T09:26:39.767Z,19.05
2023-05-19T09:29:16.593Z,18.99
2023-05-19T09:31:51.443Z,18.56
2023-05-19T09:34:18.905Z,18.95
2023-05-19T09:36:49.323Z,18.86
2023-05-19T09:39:16.988Z,19.28
2023-05-19T09:41:44.357Z,18.87
2023-05-19T09:44:22.075Z,19.27
2023-05-19T09:46:52.856Z,19.18
2023-05-19T09:49:29.499Z,19.26
2023-05-19T09:51:56.718Z,19.70
2023-05-19T09:54:24.727Z,19.73
2023-05-19T09:57:01.473Z,19.75
2023-05-19T09:59:32.130Z,19.84
2023-05-19T10:02:00.825Z,19.80
2023-05-19T10:04:28.708Z,19.71
2023-05-19T10:06:56.250Z,19.87
2023-05-19T10:09:27.353Z,19.87
2023-05-19T10:11:55.330Z,20.15
2023-05-19T10:14:26.376Z,20.46
2023-05-19T10:16:58.252Z,20.63
2023-05-19T10:19:26.561Z,20.22
2023-05-19T10:21:53.463Z,20.48
2023-05-19T10:24:21.216Z,20.51
2023-05-19T10:26:59.345Z,20.77
2023-05-19T10:29:29.982Z,20.49
2023-05-19T10:32:02.055Z,20.70
2023-05-19T10:34:45.394Z,20.65
2023-05-19T10:37:23.117Z,20.54
2023-05-19T10:39:51.236Z,20.37
2023-05-19T10:42:34.914Z,20.34
2023-05-19T10:45:23.853Z,20.29
2023-05-19T10:47:51.684Z,20.34
2023-05-19T10:50:18.442Z,20.39
2023-05-19T10:52:53.787Z,20.42
2023-05-19T10:55:49.828Z,20.18
2023-05-19T10:58:37.042Z,20.28
2023-05-19T11:01:07.998Z,20.35
2023-05-19T11:03:48.257Z,20.62
2023-05-19T11:06:21.958Z,20.76
2023-05-19T11:08:56.988Z,20.81
2023-05-19T11:11:23.650Z,20.79
2023-05-19T11:13:56.692Z,20.81
2023-05-19T11:16:32.106Z,20.88
2023-05-19T11:19:01.960Z,21.12
2023-05-19T11:21:42.856Z,21.49
2023-05-19T11:24:09.831Z,21.46
2023-05-19T11:26:46.254Z,21.41
2023-05-19T11:29:12.755Z,21.74
2023-05-19T11:31:39.478Z,21.77
2023-05-19T11:34:07.295Z,21.49
2023-05-19T11:36:34.942Z,21.31
2023-05-19T11:39:01.606Z,21.50
2023-05-19T11:41:28.458Z,21.25
2023-05-19T11:43:54.821Z,21.18
2023-05-19T11:46:21.450Z,21.67
2023-05-19T11:48:48.422Z,21.73
2023-05-19T11:51:14.815Z,21.44
2023-05-19T11:53:41.306Z,21.33
2023-05-19T11:56:07.675Z,21.54
2023-05-19T11:58:34.043Z,21.65
2023-05-19T12:01:04.135Z,21.11
2023-05-19T12:03:32.912Z,21.67
2023-05-19T12:05:59.739Z,21.24
2023-05-19T12:08:27.366Z,21.37
2023-05-19T12:10:54.266Z,20.92
2023-05-19T12:13:22.611Z,21.18
2023-05-19T12:15:51.014Z,21.32
2023-05-19T12:18:17.415Z,21.49
2023-05-19T12:20:44.170Z,21.57
2023-05-19T12:23:12.355Z,21.38
2023-05-19T12:25:39.048Z,21.23
2023-05-19T12:28:05.631Z,21.53
2023-05-19T12:30:33.457Z,21.46
2023-05-19T12:33:01.992Z,21.45
2023-05-19T12:35:30.281Z,22.00
2023-05-19T12:37:57.579Z,22.12
2023-05-19T12:40:24.002Z,22.12
2023-05-19T12:42:53.248Z,22.31
2023-05-19T12:45:22.249Z,21.85
2023-05-19T12:47:49.286Z,21.99
2023-05-19T12:50:16.104Z,21.43
2023-05-19T12:52:46.853Z,21.34
2023-05-19T12:55:16.301Z,21.46
2023-05-19T12:57:45.106Z,21.40
2023-05-19T13:00:11.568Z,21.73
2023-05-19T13:02:55.380Z,21.85
2023-05-19T13:05:22.759Z,21.64
2023-05-19T13:07:59.930Z,21.60
2023-05-19T13:10:27.838Z,21.99
2023-05-19T13:12:55.856Z,21.27
2023-05-19T13:15:24.867Z,21.04
2023-05-19T13:17:51.340Z,20.77
2023-05-19T13:20:18.181Z,20.71
2023-05-19T13:22:44.836Z,20.73
2023-05-19T13:25:11.318Z,20.95
2023-05-19T13:27:37.835Z,21.18
2023-05-19T13:30:05.167Z,21.57
2023-05-19T13:32:31.588Z,21.34
2023-05-19T13:34:58.656Z,21.40
2023-05-19T13:37:25.208Z,21.28
2023-05-19T13:39:51.566Z,21.17
2023-05-19T13:42:18.134Z,21.18
2023-05-19T13:44:47.754Z,20.89
2023-05-19T13:47:14.349Z,21.02
2023-05-19T13:49:41.434Z,21.24
2023-05-19T13:52:07.952Z,21.43
2023-05-19T13:54:34.502Z,21.44
2023-05-19T13:57:01.047Z,21.51
2023-05-19T13:59:28.226Z,21.33
2023-05-19T14:01:54.834Z,20.99
2023-05-19T14:04:21.477Z,20.89
2023-05-19T14:06:47.893Z,20.64
2023-05-19T14:09:14.503Z,20.59
2023-05-19T14:11:41.125Z,20.41
2023-05-19T14:14:08.785Z,20.55
2023-05-19T14:16:38.140Z,20.48
2023-05-19T14:19:04.837Z,20.75
2023-05-19T14:21:32.471Z,20.84
2023-05-19T14:23:59.139Z,20.59
2023-05-19T14:26:27.365Z,20.53
2023-05-19T14:28:56.943Z,20.47
2023-05-19T14:31:23.755Z,20.46
2023-05-19T14:33:51.160Z,20.55
2023-05-19T14:36:17.920Z,20.54
2023-05-19T14:38:44.354Z,20.47
2023-05-19T14:41:10.819Z,20.60
2023-05-19T14:43:37.166Z,20.75
2023-05-19T14:46:03.653Z,20.87
2023-05-19T14:48:30.085Z,20.65
2023-05-19T14:50:56.456Z,20.59
2023-05-19T14:53:22.855Z,20.64
2023-05-19T14:55:49.620Z,20.70
2023-05-19T14:58:28.273Z,20.47
2023-05-19T15:00:57.843Z,20.31
2023-05-19T15:03:24.871Z,20.51
2023-05-19T15:05:51.376Z,20.36
2023-05-19T15:08:17.771Z,20.29
2023-05-19T15:10:48.422Z,20.23
2023-05-19T15:13:14.823Z,20.13
2023-05-19T15:15:41.148Z,20.08
2023-05-19T15:18:07.516Z,20.03
2023-05-19T15:20:34.110Z,20.21
2023-05-19T15:23:00.544Z,20.02
2023-05-19T15:25:26.946Z,19.99
2023-05-19T15:27:53.413Z,19.93
2023-05-19T15:30:19.935Z,19.95
2023-05-19T15:32:46.442Z,19.96
2023-05-19T15:35:12.909Z,19.96
2023-05-19T15:37:39.326Z,19.99
2023-05-19T15:40:06.595Z,19.90
2023-05-19T15:42:33.081Z,19.93
2023-05-19T15:44:59.537Z,19.90
2023-05-19T15:47:25.920Z,19.83
2023-05-19T15:49:52.255Z,19.78
2023-05-19T15:52:18.698Z,19.72
2023-05-19T15:54:45.416Z,19.55
2023-05-19T15:57:13.411Z,19.58
2023-05-19T15:59:39.838Z,19.61
2023-05-19T16:02:06.517Z,19.68
2023-05-19T16:04:33.415Z,19.67
2023-05-19T16:06:59.782Z,19.63
2023-05-19T16:09:26.248Z,19.69
2023-05-19T16:11:52.632Z,19.65
2023-05-19T16:14:19.009Z,19.64
2023-05-19T16:16:45.538Z,19.60
2023-05-19T16:19:11.972Z,19.52
2023-05-19T16:21:38.432Z,19.58
2023-05-19T16:24:05.062Z,19.43
2023-05-19T16:26:31.473Z,19.35
2023-05-19T16:28:57.838Z,19.39
2023-05-19T16:31:24.428Z,19.36
2023-05-19T16:33:50.821Z,19.32
2023-05-19T16:36:17.261Z,19.20
2023-05-19T16:38:43.736Z,19.25
2023-05-19T16:41:13.200Z,19.25
2023-05-19T16:43:39.588Z,19.22
2023-05-19T16:46:06.411Z,19.16
2023-05-19T16:48:32.880Z,19.27
2023-05-19T16:50:59.428Z,19.21
2023-05-19T16:53:25.794Z,19.25
2023-05-19T16:55:52.207Z,19.29
2023-05-19T16:58:18.588Z,19.24
2023-05-19T17:00:45.096Z,19.21
2023-05-19T17:03:11.618Z,19.18
2023-05-19T17:05:41.662Z,19.11
2023-05-19T17:08:08.061Z,19.14
2023-05-19T17:10:34.668Z,19.14
2023-05-19T17:13:01.387Z,19.19
2023-05-19T17:15:27.759Z,19.21
2023-05-19T17:17:54.228Z,19.22
2023-05-19T17:20:20.623Z,19.16
2023-05-19T17:22:46.998Z,19.20
2023-05-19T17:25:13.383Z,19.24
2023-05-19T17:27:39.834Z,19.18
2023-05-19T17:30:06.947Z,19.12
2023-05-19T17:32:38.399Z,19.11
2023-05-19T17:35:06.692Z,19.10
2023-05-19T17:37:33.248Z,19.13
2023-05-19T17:39:59.842Z,19.09
2023-05-19T17:42:26.210Z,19.11
2023-05-19T17:44:52.639Z,19.05
2023-05-19T17:47:19.023Z,19.05
2023-05-19T17:49:45.438Z,18.99
2023-05-19T17:52:12.066Z,18.92
2023-05-19T17:54:38.634Z,18.91
2023-05-19T17:57:11.289Z,18.87
2023-05-19T17:59:38.166Z,18.94
2023-05-19T18:02:04.903Z,18.84
2023-05-19T18:04:31.735Z,18.81
2023-05-19T18:06:59.100Z,18.83
2023-05-19T18:09:28.901Z,18.82
2023-05-19T18:11:56.089Z,18.71
2023-05-19T18:14:22.617Z,18.65
2023-05-19T18:16:49.956Z,18.54
2023-05-19T18:19:16.522Z,18.57
2023-05-19T18:21:42.987Z,18.46
2023-05-19T18:24:11.225Z,18.32
2023-05-19T18:26:41.855Z,18.36
2023-05-19T18:29:09.559Z,18.32
2023-05-19T18:31:36.041Z,18.25
2023-05-19T18:34:04.224Z,18.21
2023-05-19T18:36:31.352Z,18.21
2023-05-19T18:38:58.870Z,18.14
2023-05-19T18:41:25.684Z,18.16
2023-05-19T18:43:52.099Z,18.14
2023-05-19T18:46:18.528Z,18.09
2023-05-19T18:48:45.113Z,17.94
2023-05-19T18:51:11.637Z,18.06
2023-05-19T18:53:38.065Z,17.98
2023-05-19T18:56:04.695Z,17.87
2023-05-19T18:58:31.044Z,17.81
2023-05-19T19:00:57.860Z,17.75
2023-05-19T19:03:24.400Z,17.71
2023-05-19T19:05:58.218Z,17.74
2023-05-19T19:08:24.704Z,17.81
2023-05-19T19:10:51.709Z,17.69
2023-05-19T19:13:18.444Z,17.70
2023-05-19T19:15:45.004Z,17.58
2023-05-19T19:18:11.932Z,17.70
2023-05-19T19:20:38.614Z,17.74
2023-05-19T19:23:06.495Z,17.61
2023-05-19T19:25:33.618Z,17.58
2023-05-19T19:27:59.952Z,17.53
2023-05-19T19:30:27.185Z,17.41
2023-05-19T19:32:54.791Z,17.36
2023-05-19T19:35:21.247Z,17.35
2023-05-19T19:37:47.688Z,17.29
2023-05-19T19:40:14.274Z,17.30
2023-05-19T19:42:40.864Z,17.09
2023-05-19T19:45:07.739Z,17.20
2023-05-19T19:47:34.151Z,17.16
2023-05-19T19:50:02.536Z,17.07
2023-05-19T19:52:28.941Z,17.07
2023-05-19T19:54:55.343Z,16.97
2023-05-19T19:57:21.743Z,16.92
2023-05-19T19:59:54.911Z,16.89
2023-05-19T20:02:21.598Z,16.89
2023-05-19T20:04:48.102Z,16.95
2023-05-19T20:07:14.472Z,16.86
2023-05-19T20:09:40.840Z,16.83
2023-05-19T20:12:07.379Z,16.75
2023-05-19T20:14:33.707Z,16.69
2023-05-19T20:17:00.125Z,16.67
2023-05-19T20:19:26.818Z,16.64
2023-05-19T20:21:53.164Z,16.69
2023-05-19T20:24:19.721Z,16.63
2023-05-19T20:26:46.533Z,16.60
2023-05-19T20:29:12.905Z,16.59
2023-05-19T20:31:39.330Z,16.54
2023-05-19T20:34:05.883Z,16.52
2023-05-19T20:36:32.312Z,16.54
2023-05-19T20:38:58.668Z,16.55
2023-05-19T20:41:25.230Z,16.42
2023-05-19T20:43:51.588Z,16.43
2023-05-19T20:46:17.980Z,16.54
2023-05-19T20:48:44.477Z,16.44
2023-05-19T20:51:10.878Z,16.34
2023-05-19T20:53:37.471Z,16.31
2023-05-19T20:56:05.187Z,16.28
2023-05-19T20:58:31.951Z,16.25
2023-05-19T21:00:58.494Z,16.25
2023-05-19T21:03:25.224Z,16.23
2023-05-19T21:05:51.580Z,16.16
2023-05-19T21:08:18.025Z,16.22
2023-05-19T21:10:44.566Z,16.10
2023-05-19T21:13:10.966Z,16.13
2023-05-19T21:15:37.345Z,16.08
2023-05-19T21:18:03.931Z,16.14
2023-05-19T21:20:30.479Z,16.01
2023-05-19T21:22:56.840Z,16.01
2023-05-19T21:25:23.336Z,16.01
2023-05-19T21:27:51.293Z,16.10
2023-05-19T21:30:17.691Z,16.08
2023-05-19T21:32:44.257Z,16.11
2023-05-19T21:35:10.699Z,16.06
2023-05-19T21:37:37.158Z,15.96
2023-05-19T21:40:03.711Z,16.00
2023-05-19T21:42:30.125Z,15.96
2023-05-19T21:44:56.763Z,15.91
2023-05-19T21:47:23.179Z,15.90
2023-05-19T21:49:49.498Z,15.85
2023-05-19T21:52:15.999Z,15.85
2023-05-19T21:54:42.380Z,15.80
2023-05-19T21:57:10.985Z,15.77
2023-05-19T21:59:37.301Z,15.75
2023-05-19T22:02:04.481Z,15.72
2023-05-19T22:04:33.578Z,15.82
2023-05-19T22:07:00.002Z,15.68
2023-05-19T22:09:26.394Z,15.64
2023-05-19T22:11:52.761Z,15.62
2023-05-19T22:14:19.142Z,15.55
2023-05-19T22:16:47.288Z,15.55
2023-05-19T22:19:14.473Z,15.51
2023-05-19T22:21:41.054Z,15.52
2023-05-19T22:24:07.468Z,15.44
2023-05-19T22:26:35.605Z,15.40
2023-05-19T22:29:02.557Z,15.41
2023-05-19T22:31:29.596Z,15.41
2023-05-19T22:33:56.210Z,15.37
2023-05-19T22:36:22.629Z,15.30
2023-05-19T22:38:48.970Z,15.34
2023-05-19T22:41:15.315Z,15.28
2023-05-19T22:43:41.821Z,15.26
2023-05-19T22:46:08.232Z,15.24
2023-05-19T22:48:34.604Z,15.24
2023-05-19T22:51:01.278Z,15.21
2023-05-19T22:53:27.641Z,15.26
2023-05-19T22:55:54.044Z,15.18
2023-05-19T22:58:20.477Z,15.19
2023-05-19T23:00:46.825Z,15.19
2023-05-19T23:03:13.323Z,15.07
2023-05-19T23:05:40.139Z,15.04
2023-05-19T23:08:06.531Z,15.11
2023-05-19T23:10:32.908Z,15.07
2023-05-19T23:12:59.298Z,14.99
2023-05-19T23:15:25.652Z,14.93
2023-05-19T23:17:52.076Z,14.95
2023-05-19T23:20:18.548Z,14.93
2023-05-19T23:22:44.880Z,14.90
2023-05-19T23:25:11.419Z,14.88
2023-05-19T23:27:37.866Z,14.85
2023-05-19T23:30:05.962Z,14.87
2023-05-19T23:32:32.426Z,14.81
2023-05-19T23:35:09.157Z,14.82
2023-05-19T23:37:35.661Z,14.80
2023-05-19T23:40:01.993Z,14.74
2023-05-19T23:42:28.370Z,14.71
2023-05-19T23:44:54.744Z,14.68
2023-05-19T23:47:21.168Z,14.62
2023-05-19T23:49:48.620Z,14.61
2023-05-19T23:52:18.166Z,14.65
2023-05-19T23:54:44.524Z,14.51
2023-05-19T23:57:10.907Z,14.59
2023-05-19T23:59:37.377Z,14.54
